createdAt,value
2022-12-27T00:00:54.098Z,101834.72
2022-12-27T00:02:00.247Z,101829.50
2022-12-27T00:03:02.165Z,101828.59
2022-12-27T00:04:05.291Z,101831.22
2022-12-27T00:05:08.886Z,101832.13
2022-12-27T00:06:13.465Z,101830.41
2022-12-27T00:07:15.044Z,101838.31
2022-12-27T00:08:17.641Z,101831.28
2022-12-27T00:09:19.484Z,101827.78
2022-12-27T00:10:24.123Z,101829.59
2022-12-27T00:11:29.819Z,101838.31
2022-12-27T00:12:31.462Z,101832.22
2022-12-27T00:13:33.994Z,101828.72
2022-12-27T00:14:35.637Z,101836.63
2022-12-27T00:15:38.479Z,101836.63
2022-12-27T00:16:40.132Z,101841.88
2022-12-27T00:17:42.697Z,101836.63
2022-12-27T00:18:45.060Z,101847.16
2022-12-27T00:19:47.893Z,101834.91
2022-12-27T00:20:49.908Z,101841.88
2022-12-27T00:21:55.657Z,101835.81
2022-12-27T00:23:00.262Z,101834.91
2022-12-27T00:24:03.479Z,101836.66
2022-12-27T00:25:06.099Z,101833.19
2022-12-27T00:26:12.480Z,101832.31
2022-12-27T00:27:14.061Z,101835.91
2022-12-27T00:28:16.789Z,101828.91
2022-12-27T00:29:18.455Z,101832.44
2022-12-27T00:30:21.253Z,101831.63
2022-12-27T00:31:25.163Z,101835.16
2022-12-27T00:32:27.768Z,101839.50
2022-12-27T00:33:31.237Z,101840.41
2022-12-27T00:34:35.258Z,101835.16
2022-12-27T00:35:39.218Z,101836.06
2022-12-27T00:36:41.844Z,101829.03
2022-12-27T00:37:43.457Z,101837.78
2022-12-27T00:38:46.744Z,101839.56
2022-12-27T00:39:48.276Z,101837.84
2022-12-27T00:40:50.846Z,101837.00
2022-12-27T00:41:53.796Z,101835.28
2022-12-27T00:42:56.313Z,101844.91
2022-12-27T00:43:57.920Z,101844.91
2022-12-27T00:45:00.499Z,101844.09
2022-12-27T00:46:02.445Z,101850.22
2022-12-27T00:47:05.185Z,101844.94
2022-12-27T00:48:06.803Z,101850.22
2022-12-27T00:49:09.369Z,101858.09
2022-12-27T00:50:10.968Z,101851.97
2022-12-27T00:51:15.629Z,101852.06
2022-12-27T00:52:17.264Z,101851.19
2022-12-27T00:53:20.204Z,101856.47
2022-12-27T00:54:23.756Z,101849.44
2022-12-27T00:55:26.575Z,101847.63
2022-12-27T00:56:29.888Z,101847.63
2022-12-27T00:57:33.711Z,101847.63
2022-12-27T00:58:40.543Z,101851.19
2022-12-27T00:59:43.540Z,101845.06
2022-12-27T01:00:45.224Z,101851.19
2022-12-27T01:01:47.860Z,101851.19
2022-12-27T01:02:51.173Z,101852.06
2022-12-27T01:03:55.546Z,101858.16
2022-12-27T01:05:00.712Z,101865.25
2022-12-27T01:06:08.234Z,101851.25
2022-12-27T01:07:09.805Z,101857.38
2022-12-27T01:08:13.470Z,101859.13
2022-12-27T01:09:14.972Z,101857.38
2022-12-27T01:10:17.504Z,101856.50
2022-12-27T01:11:19.455Z,101867.13
2022-12-27T01:12:22.040Z,101863.53
2022-12-27T01:13:35.821Z,101861.84
2022-12-27T01:14:40.159Z,101856.59
2022-12-27T01:15:43.423Z,101864.47
2022-12-27T01:16:47.296Z,101863.53
2022-12-27T01:17:48.955Z,101860.09
2022-12-27T01:18:51.974Z,101863.53
2022-12-27T01:19:53.485Z,101863.53
2022-12-27T01:20:55.979Z,101867.13
2022-12-27T01:21:57.586Z,101862.72
2022-12-27T01:23:00.051Z,101867.13
2022-12-27T01:24:01.586Z,101867.97
2022-12-27T01:25:04.242Z,101867.97
2022-12-27T01:26:07.924Z,101863.63
2022-12-27T01:27:10.429Z,101868.81
2022-12-27T01:28:11.964Z,101874.13
2022-12-27T01:29:16.051Z,101866.25
2022-12-27T01:30:17.716Z,101868.03
2022-12-27T01:31:22.902Z,101873.28
2022-12-27T01:32:24.480Z,101861.84
2022-12-27T01:33:27.085Z,101866.16
2022-12-27T01:34:28.761Z,101869.75
2022-12-27T01:35:31.243Z,101867.13
2022-12-27T01:36:32.775Z,101881.16
2022-12-27T01:37:35.399Z,101876.78
2022-12-27T01:38:37.028Z,101877.63
2022-12-27T01:39:39.532Z,101882.91
2022-12-27T01:40:41.351Z,101888.16
2022-12-27T01:41:59.302Z,101886.38
2022-12-27T01:43:01.328Z,101882.91
2022-12-27T01:44:37.583Z,101897.75
2022-12-27T01:45:42.908Z,101888.16
2022-12-27T01:46:44.517Z,101884.72
2022-12-27T01:47:55.726Z,101895.22
2022-12-27T01:48:57.739Z,101888.28
2022-12-27T01:50:13.722Z,101894.44
2022-12-27T01:51:16.216Z,101894.44
2022-12-27T01:52:18.975Z,101898.00
2022-12-27T01:53:24.086Z,101902.34
2022-12-27T01:54:26.385Z,101903.19
2022-12-27T01:55:34.920Z,101899.72
2022-12-27T01:56:43.574Z,101909.31
2022-12-27T01:57:48.061Z,101904.06
2022-12-27T01:58:54.544Z,101903.19
2022-12-27T01:59:57.132Z,101912.00
2022-12-27T02:01:01.252Z,101904.97
2022-12-27T02:02:03.253Z,101912.88
2022-12-27T02:03:07.168Z,101911.13
2022-12-27T02:04:11.453Z,101913.78
2022-12-27T02:05:17.661Z,101918.13
2022-12-27T02:06:21.961Z,101920.75
2022-12-27T02:07:31.549Z,101918.13
2022-12-27T02:08:41.297Z,101914.63
2022-12-27T02:09:49.045Z,101921.63
2022-12-27T02:10:51.263Z,101919.91
2022-12-27T02:12:07.698Z,101914.63
2022-12-27T02:13:10.486Z,101917.25
2022-12-27T02:14:17.466Z,101911.13
2022-12-27T02:15:19.802Z,101909.44
2022-12-27T02:16:23.690Z,101908.50
2022-12-27T02:17:28.189Z,101918.13
2022-12-27T02:18:30.725Z,101917.34
2022-12-27T02:19:42.566Z,101921.66
2022-12-27T02:21:04.793Z,101921.66
2022-12-27T02:22:54.240Z,101915.50
2022-12-27T02:24:18.053Z,101921.66
2022-12-27T02:25:32.742Z,101919.97
2022-12-27T02:26:52.499Z,101923.47
2022-12-27T02:28:07.303Z,101912.09
2022-12-27T02:29:36.146Z,101915.59
2022-12-27T02:30:38.265Z,101919.97
2022-12-27T02:31:49.023Z,101918.25
2022-12-27T02:32:56.743Z,101914.75
2022-12-27T02:34:05.368Z,101914.75
2022-12-27T02:35:13.829Z,101920.88
2022-12-27T02:36:23.754Z,101920.03
2022-12-27T02:37:29.580Z,101919.13
2022-12-27T02:38:37.063Z,101916.50
2022-12-27T02:39:43.384Z,101923.47
2022-12-27T02:41:05.192Z,101923.47
2022-12-27T02:42:26.918Z,101920.84
2022-12-27T02:43:47.371Z,101924.34
2022-12-27T02:45:14.187Z,101923.47
2022-12-27T02:46:37.405Z,101922.63
2022-12-27T02:47:57.737Z,101929.66
2022-12-27T02:49:18.138Z,101927.00
2022-12-27T02:50:38.375Z,101922.66
2022-12-27T02:52:13.739Z,101925.28
2022-12-27T02:53:35.174Z,101924.47
2022-12-27T02:55:08.509Z,101930.53
2022-12-27T02:56:53.021Z,101927.09
2022-12-27T02:58:12.590Z,101925.28
2022-12-27T02:59:27.622Z,101922.72
2022-12-27T03:00:53.785Z,101926.22
2022-12-27T03:02:26.731Z,101928.00
2022-12-27T03:03:45.074Z,101926.22
2022-12-27T03:05:03.459Z,101927.13
2022-12-27T03:06:49.645Z,101926.22
2022-12-27T03:08:01.415Z,101920.97
2022-12-27T03:09:37.593Z,101928.84
2022-12-27T03:11:04.654Z,101929.75
2022-12-27T03:12:31.541Z,101935.03
2022-12-27T03:13:58.890Z,101930.66
2022-12-27T03:15:33.460Z,101925.41
2022-12-27T03:16:55.877Z,101932.47
2022-12-27T03:18:07.370Z,101928.97
2022-12-27T03:19:13.997Z,101932.50
2022-12-27T03:20:36.905Z,101932.47
2022-12-27T03:22:01.563Z,101935.09
2022-12-27T03:23:22.884Z,101934.25
2022-12-27T03:24:52.056Z,101931.59
2022-12-27T03:25:57.527Z,101936.00
2022-12-27T03:27:01.382Z,101938.63
2022-12-27T03:28:25.814Z,101939.50
2022-12-27T03:29:46.627Z,101945.63
2022-12-27T03:31:14.195Z,101944.75
2022-12-27T03:32:36.729Z,101949.06
2022-12-27T03:33:42.520Z,101944.75
2022-12-27T03:34:50.282Z,101942.13
2022-12-27T03:36:14.614Z,101942.13
2022-12-27T03:37:38.274Z,101948.28
2022-12-27T03:38:48.483Z,101946.53
2022-12-27T03:39:56.507Z,101943.91
2022-12-27T03:41:22.173Z,101944.75
2022-12-27T03:42:48.235Z,101938.63
2022-12-27T03:43:51.549Z,101946.53
2022-12-27T03:44:53.149Z,101948.28
2022-12-27T03:46:22.822Z,101936.06
2022-12-27T03:47:32.674Z,101945.66
2022-12-27T03:48:40.467Z,101954.41
2022-12-27T03:49:50.089Z,101959.69
2022-12-27T03:50:55.540Z,101949.16
2022-12-27T03:52:07.353Z,101958.69
2022-12-27T03:53:14.435Z,101956.97
2022-12-27T03:54:26.225Z,101949.06
2022-12-27T03:55:33.157Z,101955.16
2022-12-27T03:56:37.368Z,101947.28
2022-12-27T03:57:40.163Z,101945.53
2022-12-27T03:58:43.985Z,101947.28
2022-12-27T03:59:46.037Z,101947.28
2022-12-27T04:00:48.626Z,101944.63
2022-12-27T04:01:50.329Z,101949.91
2022-12-27T04:02:54.447Z,101944.63
2022-12-27T04:03:56.176Z,101944.63
2022-12-27T04:04:58.693Z,101949.91
2022-12-27T04:06:00.918Z,101944.63
2022-12-27T04:07:03.446Z,101947.28
2022-12-27T04:08:23.519Z,101944.63
2022-12-27T04:09:43.908Z,101944.63
2022-12-27T04:11:04.796Z,101944.63
2022-12-27T04:12:25.066Z,101943.78
2022-12-27T04:13:45.282Z,101944.63
2022-12-27T04:15:12.282Z,101945.53
2022-12-27T04:16:32.979Z,101946.44
2022-12-27T04:17:54.257Z,101946.44
2022-12-27T04:19:15.713Z,101949.06
2022-12-27T04:20:36.063Z,101943.69
2022-12-27T04:21:56.201Z,101944.47
2022-12-27T04:23:16.455Z,101944.34
2022-12-27T04:24:36.811Z,101946.81
2022-12-27T04:25:57.151Z,101956.31
2022-12-27T04:27:17.444Z,101947.50
2022-12-27T04:28:37.541Z,101950.03
2022-12-27T04:29:57.819Z,101941.13
2022-12-27T04:31:18.112Z,101944.50
2022-12-27T04:32:38.480Z,101941.75
2022-12-27T04:33:59.904Z,101942.50
2022-12-27T04:35:08.936Z,101944.06
2022-12-27T04:36:10.506Z,101935.25
2022-12-27T04:37:15.287Z,101932.56
2022-12-27T04:38:23.094Z,101939.53
2022-12-27T04:39:29.802Z,101935.13
2022-12-27T04:40:51.219Z,101942.03
2022-12-27T04:42:11.435Z,101948.13
2022-12-27T04:43:31.815Z,101939.31
2022-12-27T04:44:52.138Z,101942.72
2022-12-27T04:46:12.440Z,101936.53
2022-12-27T04:47:46.540Z,101939.06
2022-12-27T04:49:06.501Z,101935.47
2022-12-27T04:50:35.122Z,101932.84
2022-12-27T04:51:55.355Z,101931.94
2022-12-27T04:53:15.710Z,101933.78
2022-12-27T04:54:37.549Z,101929.47
2022-12-27T04:55:40.069Z,101931.31
2022-12-27T04:56:41.602Z,101944.56
2022-12-27T04:57:44.128Z,101942.84
2022-12-27T04:59:00.581Z,101951.66
2022-12-27T05:00:21.111Z,101948.13
2022-12-27T05:01:44.650Z,101956.91
2022-12-27T05:02:48.090Z,101967.44
2022-12-27T05:03:53.177Z,101958.75
2022-12-27T05:04:57.302Z,101964.88
2022-12-27T05:06:00.792Z,101967.56
2022-12-27T05:07:23.944Z,101968.47
2022-12-27T05:08:44.062Z,101972.84
2022-12-27T05:10:04.373Z,101970.28
2022-12-27T05:11:24.750Z,101973.81
2022-12-27T05:12:45.183Z,101971.22
2022-12-27T05:14:00.501Z,101978.34
2022-12-27T05:15:02.081Z,101980.13
2022-12-27T05:16:05.170Z,101974.94
2022-12-27T05:17:06.699Z,101978.34
2022-12-27T05:18:09.366Z,101978.34
2022-12-27T05:19:13.442Z,101980.91
2022-12-27T05:20:16.035Z,101981.75
2022-12-27T05:21:20.786Z,101990.59
2022-12-27T05:22:50.660Z,101988.88
2022-12-27T05:24:11.349Z,101994.13
2022-12-27T05:25:31.703Z,101995.03
2022-12-27T05:26:35.125Z,101991.56
2022-12-27T05:27:36.686Z,101995.03
2022-12-27T05:28:39.230Z,101995.03
2022-12-27T05:29:40.803Z,101991.50
2022-12-27T05:30:45.284Z,102006.38
2022-12-27T05:31:47.069Z,102000.31
2022-12-27T05:32:49.611Z,101996.81
2022-12-27T05:33:52.433Z,102010.84
2022-12-27T05:34:54.955Z,102017.03
2022-12-27T05:35:58.276Z,102013.59
2022-12-27T05:37:02.147Z,102013.59
2022-12-27T05:38:03.867Z,102010.16
2022-12-27T05:39:06.760Z,102009.31
2022-12-27T05:40:16.886Z,102016.34
2022-12-27T05:41:25.589Z,102019.88
2022-12-27T05:42:27.154Z,102011.16
2022-12-27T05:43:30.344Z,102010.28
2022-12-27T05:44:32.006Z,102003.31
2022-12-27T05:45:34.635Z,102012.97
2022-12-27T05:46:36.363Z,102002.53
2022-12-27T05:47:39.024Z,102005.19
2022-12-27T05:48:41.208Z,102006.97
2022-12-27T05:49:43.704Z,102004.41
2022-12-27T05:50:45.330Z,102006.19
2022-12-27T05:51:48.174Z,102010.53
2022-12-27T05:52:51.118Z,102008.81
2022-12-27T05:53:53.780Z,102009.72
2022-12-27T05:54:55.626Z,102012.34
2022-12-27T05:55:59.293Z,102012.41
2022-12-27T05:57:00.891Z,102018.59
2022-12-27T05:58:03.600Z,102022.09
2022-12-27T05:59:05.491Z,102016.88
2022-12-27T06:00:10.290Z,102018.59
2022-12-27T06:01:21.209Z,102026.47
2022-12-27T06:02:23.963Z,102021.25
2022-12-27T06:03:27.335Z,102021.25
2022-12-27T06:04:30.998Z,102022.19
2022-12-27T06:05:33.805Z,102028.31
2022-12-27T06:06:41.340Z,102031.88
2022-12-27T06:07:43.545Z,102023.09
2022-12-27T06:08:48.239Z,102030.09
2022-12-27T06:09:49.850Z,102031.88
2022-12-27T06:10:53.818Z,102029.28
2022-12-27T06:11:55.360Z,102026.66
2022-12-27T06:13:00.373Z,102028.38
2022-12-27T06:14:01.902Z,102032.78
2022-12-27T06:15:04.985Z,102034.53
2022-12-27T06:16:08.754Z,102034.53
2022-12-27T06:17:11.311Z,102037.16
2022-12-27T06:18:12.864Z,102037.16
2022-12-27T06:19:15.604Z,102032.78
2022-12-27T06:20:18.198Z,102023.19
2022-12-27T06:21:22.260Z,102030.22
2022-12-27T06:22:24.071Z,102030.22
2022-12-27T06:23:26.565Z,102035.47
2022-12-27T06:24:29.464Z,102025.00
2022-12-27T06:25:31.954Z,102028.50
2022-12-27T06:26:33.552Z,102027.63
2022-12-27T06:27:36.065Z,102034.66
2022-12-27T06:28:37.730Z,102037.28
2022-12-27T06:29:40.234Z,102036.41
2022-12-27T06:30:41.805Z,102038.16
2022-12-27T06:31:44.319Z,102040.84
2022-12-27T06:32:45.926Z,102047.81
2022-12-27T06:33:49.484Z,102038.22
2022-12-27T06:34:50.996Z,102040.84
2022-12-27T06:35:53.493Z,102044.38
2022-12-27T06:36:55.137Z,102054.00
2022-12-27T06:37:57.726Z,102050.50
2022-12-27T06:38:59.887Z,102050.50
2022-12-27T06:40:03.885Z,102044.38
2022-12-27T06:41:07.831Z,102052.28
2022-12-27T06:42:10.544Z,102049.66
2022-12-27T06:43:12.274Z,102051.41
2022-12-27T06:44:15.283Z,102047.91
2022-12-27T06:45:16.898Z,102048.78
2022-12-27T06:46:19.578Z,102056.75
2022-12-27T06:47:21.207Z,102055.00
2022-12-27T06:48:23.726Z,102055.84
2022-12-27T06:49:26.069Z,102055.84
2022-12-27T06:50:29.681Z,102057.63
2022-12-27T06:51:33.151Z,102057.63
2022-12-27T06:52:36.803Z,102057.63
2022-12-27T06:53:38.897Z,102058.53
2022-12-27T06:54:43.000Z,102055.03
2022-12-27T06:55:45.976Z,102045.44
2022-12-27T06:56:48.602Z,102055.97
2022-12-27T06:57:51.391Z,102063.00
2022-12-27T06:58:54.453Z,102060.38
2022-12-27T06:59:55.980Z,102056.88
2022-12-27T07:00:58.617Z,102061.22
2022-12-27T07:02:00.412Z,102058.66
2022-12-27T07:03:05.901Z,102060.38
2022-12-27T07:04:10.007Z,102059.50
2022-12-27T07:05:13.242Z,102057.78
2022-12-27T07:06:16.716Z,102059.53
2022-12-27T07:07:20.891Z,102068.31
2022-12-27T07:08:22.470Z,102058.72
2022-12-27T07:09:25.343Z,102061.38
2022-12-27T07:10:26.926Z,102065.75
2022-12-27T07:11:33.052Z,102059.63
2022-12-27T07:12:36.768Z,102071.00
2022-12-27T07:13:41.058Z,102069.28
2022-12-27T07:14:42.621Z,102063.16
2022-12-27T07:15:45.165Z,102065.78
2022-12-27T07:16:56.961Z,102060.59
2022-12-27T07:17:59.880Z,102063.22
2022-12-27T07:19:02.373Z,102066.75
2022-12-27T07:20:04.669Z,102063.28
2022-12-27T07:21:08.844Z,102063.28
2022-12-27T07:22:11.313Z,102069.41
2022-12-27T07:23:19.097Z,102067.66
2022-12-27T07:24:21.974Z,102070.28
2022-12-27T07:25:23.485Z,102085.22
2022-12-27T07:26:29.036Z,102083.44
2022-12-27T07:27:35.855Z,102078.25
2022-12-27T07:28:38.309Z,102088.78
2022-12-27T07:29:45.467Z,102093.19
2022-12-27T07:30:47.429Z,102096.66
2022-12-27T07:31:50.281Z,102101.06
2022-12-27T07:32:53.193Z,102099.34
2022-12-27T07:33:57.088Z,102090.53
2022-12-27T07:34:59.903Z,102094.94
2022-12-27T07:36:03.072Z,102107.19
2022-12-27T07:37:05.132Z,102096.72
2022-12-27T07:38:07.719Z,102094.06
2022-12-27T07:39:09.634Z,102100.25
2022-12-27T07:40:12.827Z,102099.34
2022-12-27T07:41:15.028Z,102101.97
2022-12-27T07:42:17.604Z,102103.69
2022-12-27T07:43:20.581Z,102103.72
2022-12-27T07:44:23.189Z,102101.09
2022-12-27T07:45:24.733Z,102104.59
2022-12-27T07:46:27.858Z,102109.00
2022-12-27T07:47:29.815Z,102105.47
2022-12-27T07:48:33.164Z,102102.78
2022-12-27T07:49:35.575Z,102101.06
2022-12-27T07:50:38.116Z,102100.19
2022-12-27T07:51:39.698Z,102095.81
2022-12-27T07:52:42.201Z,102103.69
2022-12-27T07:53:44.245Z,102106.31
2022-12-27T07:54:46.746Z,102110.69
2022-12-27T07:55:48.702Z,102102.78
2022-12-27T07:56:51.240Z,102101.94
2022-12-27T07:57:52.776Z,102108.06
2022-12-27T07:58:58.763Z,102110.69
2022-12-27T08:00:00.306Z,102115.00
2022-12-27T08:01:04.880Z,102111.47
2022-12-27T08:02:07.095Z,102111.47
2022-12-27T08:03:09.818Z,102122.00
2022-12-27T08:04:11.383Z,102122.00
2022-12-27T08:05:14.277Z,102114.09
2022-12-27T08:06:24.352Z,102114.97
2022-12-27T08:07:27.096Z,102123.72
2022-12-27T08:08:36.828Z,102121.91
2022-12-27T08:09:41.744Z,102127.13
2022-12-27T08:10:43.844Z,102124.50
2022-12-27T08:11:46.346Z,102125.41
2022-12-27T08:12:49.509Z,102123.59
2022-12-27T08:13:52.266Z,102127.09
2022-12-27T08:14:55.400Z,102120.91
2022-12-27T08:15:58.003Z,102120.91
2022-12-27T08:17:04.557Z,102124.41
2022-12-27T08:18:07.369Z,102117.38
2022-12-27T08:19:08.903Z,102125.19
2022-12-27T08:20:14.993Z,102123.44
2022-12-27T08:21:16.779Z,102119.03
2022-12-27T08:22:19.291Z,102117.25
2022-12-27T08:23:21.145Z,102118.97
2022-12-27T08:24:24.612Z,102124.25
2022-12-27T08:25:26.370Z,102118.13
2022-12-27T08:26:29.643Z,102128.59
2022-12-27T08:27:32.410Z,102132.09
2022-12-27T08:28:35.553Z,102139.09
2022-12-27T08:29:38.085Z,102127.66
2022-12-27T08:30:45.191Z,102130.28
2022-12-27T08:31:46.763Z,102132.00
2022-12-27T08:32:50.710Z,102125.81
2022-12-27T08:33:58.216Z,102135.44
2022-12-27T08:35:18.375Z,102132.75
2022-12-27T08:37:46.467Z,102136.97
2022-12-27T08:38:48.744Z,102129.94
2022-12-27T08:39:51.921Z,102126.41
2022-12-27T08:40:56.111Z,102129.84
2022-12-27T08:41:58.637Z,102123.69
2022-12-27T08:43:00.391Z,102126.31
2022-12-27T08:44:03.011Z,102132.28
2022-12-27T08:45:05.329Z,102137.53
2022-12-27T08:46:09.503Z,102136.63
2022-12-27T08:47:12.109Z,102136.59
2022-12-27T08:48:13.648Z,102135.63
2022-12-27T08:49:16.158Z,102140.03
2022-12-27T08:50:17.719Z,102140.81
2022-12-27T08:51:32.625Z,102138.13
2022-12-27T08:52:40.139Z,102134.59
2022-12-27T08:53:42.655Z,102132.84
2022-12-27T08:54:44.206Z,102133.63
2022-12-27T08:55:46.753Z,102129.16
2022-12-27T08:56:52.169Z,102138.78
2022-12-27T08:57:57.318Z,102134.38
2022-12-27T08:58:59.978Z,102132.59
2022-12-27T09:00:01.838Z,102131.63
2022-12-27T09:01:11.586Z,102135.97
2022-12-27T09:02:14.538Z,102126.28
2022-12-27T09:03:19.842Z,102131.47
2022-12-27T09:04:21.679Z,102134.09
2022-12-27T09:05:25.897Z,102141.91
2022-12-27T09:06:27.808Z,102137.50
2022-12-27T09:07:30.384Z,102140.06
2022-12-27T09:08:31.895Z,102137.44
2022-12-27T09:09:34.712Z,102141.75
2022-12-27T09:10:36.421Z,102141.75
2022-12-27T09:11:39.176Z,102142.53
2022-12-27T09:12:40.828Z,102142.50
2022-12-27T09:13:43.672Z,102140.66
2022-12-27T09:14:47.459Z,102151.16
2022-12-27T09:15:50.302Z,102148.44
2022-12-27T09:16:55.601Z,102146.59
2022-12-27T09:17:57.587Z,102150.94
2022-12-27T09:19:00.887Z,102156.16
2022-12-27T09:20:03.353Z,102150.91
2022-12-27T09:21:07.843Z,102149.06
2022-12-27T09:22:10.379Z,102153.41
2022-12-27T09:23:12.149Z,102151.66
2022-12-27T09:24:15.462Z,102159.47
2022-12-27T09:25:17.228Z,102146.25
2022-12-27T09:26:21.724Z,102159.34
2022-12-27T09:27:23.272Z,102152.28
2022-12-27T09:28:25.846Z,102157.53
2022-12-27T09:29:28.353Z,102161.81
2022-12-27T09:30:29.940Z,102157.34
2022-12-27T09:31:33.276Z,102162.56
2022-12-27T09:32:36.336Z,102157.22
2022-12-27T09:33:38.887Z,102161.59
2022-12-27T09:34:40.456Z,102157.19
2022-12-27T09:35:42.921Z,102153.63
2022-12-27T09:36:44.445Z,102152.69
2022-12-27T09:37:46.935Z,102153.53
2022-12-27T09:38:49.481Z,102155.22
2022-12-27T09:39:52.303Z,102153.41
2022-12-27T09:40:56.256Z,102157.72
2022-12-27T09:42:47.702Z,102164.72
2022-12-27T09:43:38.401Z,102158.53
2022-12-27T09:44:48.794Z,102154.97
2022-12-27T09:45:55.432Z,102145.28
2022-12-27T09:47:01.660Z,102139.97
2022-12-27T09:48:13.428Z,102148.75
2022-12-27T09:49:20.419Z,102145.13
2022-12-27T09:50:28.859Z,102146.84
2022-12-27T09:51:40.714Z,102150.28
2022-12-27T09:52:54.027Z,102151.13
2022-12-27T09:54:03.053Z,102151.91
2022-12-27T09:55:17.947Z,102148.38
2022-12-27T09:56:35.679Z,102152.72
2022-12-27T09:57:58.717Z,102150.94
2022-12-27T09:59:06.189Z,102145.66
2022-12-27T10:00:16.721Z,102149.03
2022-12-27T10:01:24.248Z,102152.53
2022-12-27T10:02:29.313Z,102148.91
2022-12-27T10:03:32.601Z,102151.50
2022-12-27T10:05:09.918Z,102147.09
2022-12-27T10:06:09.827Z,102145.22
2022-12-27T10:07:19.927Z,102143.47
2022-12-27T10:08:37.685Z,102144.25
2022-12-27T10:09:57.172Z,102148.59
2022-12-27T10:11:34.209Z,102140.66
2022-12-27T10:12:56.177Z,102149.34
2022-12-27T10:14:01.883Z,102145.81
2022-12-27T10:15:19.946Z,102143.09
2022-12-27T10:16:29.700Z,102144.81
2022-12-27T10:17:51.146Z,102148.22
2022-12-27T10:19:17.155Z,102137.63
2022-12-27T10:20:28.684Z,102146.31
2022-12-27T10:21:35.696Z,102146.28
2022-12-27T10:22:46.052Z,102144.44
2022-12-27T10:23:55.442Z,102142.59
2022-12-27T10:25:00.534Z,102138.16
2022-12-27T10:26:06.379Z,102137.19
2022-12-27T10:27:14.345Z,102137.97
2022-12-27T10:28:18.831Z,102141.47
2022-12-27T10:29:22.155Z,102134.34
2022-12-27T10:30:24.723Z,102143.91
2022-12-27T10:31:27.299Z,102142.09
2022-12-27T10:32:29.842Z,102133.25
2022-12-27T10:33:34.792Z,102136.69
2022-12-27T10:34:38.646Z,102133.13
2022-12-27T10:35:41.209Z,102139.19
2022-12-27T10:36:46.120Z,102141.81
2022-12-27T10:37:49.295Z,102133.00
2022-12-27T10:38:54.348Z,102133.78
2022-12-27T10:40:05.240Z,102143.41
2022-12-27T10:41:20.772Z,102136.28
2022-12-27T10:42:35.163Z,102131.81
2022-12-27T10:43:41.180Z,102130.88
2022-12-27T10:44:43.779Z,102137.88
2022-12-27T10:45:45.527Z,102137.75
2022-12-27T10:46:52.604Z,102142.09
2022-12-27T10:47:55.985Z,102141.16
2022-12-27T10:50:26.377Z,102135.88
2022-12-27T10:51:35.993Z,102146.44
2022-12-27T10:52:38.019Z,102138.53
2022-12-27T10:53:53.156Z,102141.03
2022-12-27T10:54:57.241Z,102140.94
2022-12-27T10:56:14.732Z,102144.34
2022-12-27T10:57:25.182Z,102145.94
2022-12-27T10:58:38.053Z,102144.06
2022-12-27T10:59:40.523Z,102142.22
2022-12-27T11:00:53.465Z,102145.56
2022-12-27T11:02:17.534Z,102139.38
2022-12-27T11:03:19.691Z,102143.66
2022-12-27T11:04:24.149Z,102137.47
2022-12-27T11:05:28.628Z,102138.25
2022-12-27T11:06:31.132Z,102135.47
2022-12-27T11:07:35.581Z,102143.34
2022-12-27T11:08:37.172Z,102143.25
2022-12-27T11:09:44.935Z,102152.84
2022-12-27T11:11:12.218Z,102144.84
2022-12-27T11:12:19.801Z,102146.56
2022-12-27T11:13:21.451Z,102149.13
2022-12-27T11:14:24.707Z,102149.97
2022-12-27T11:15:29.554Z,102149.00
2022-12-27T11:16:42.606Z,102151.56
2022-12-27T11:17:47.416Z,102142.75
2022-12-27T11:18:54.849Z,102138.22
2022-12-27T11:20:00.411Z,102143.38
2022-12-27T11:21:04.837Z,102136.25
2022-12-27T11:22:07.996Z,102134.41
2022-12-27T11:23:16.428Z,102134.25
2022-12-27T11:24:20.300Z,102129.75
2022-12-27T11:25:23.460Z,102131.47
2022-12-27T11:26:30.683Z,102132.34
2022-12-27T11:27:32.269Z,102127.91
2022-12-27T11:28:38.511Z,102123.56
2022-12-27T11:29:46.863Z,102127.91
2022-12-27T11:30:56.720Z,102135.75
2022-12-27T11:32:07.548Z,102138.34
2022-12-27T11:33:24.618Z,102134.84
2022-12-27T11:34:32.303Z,102136.63
2022-12-27T11:35:44.948Z,102135.75
2022-12-27T11:36:51.053Z,102134.13
2022-12-27T11:37:52.641Z,102135.91
2022-12-27T11:38:55.861Z,102148.22
2022-12-27T11:40:21.168Z,102140.31
2022-12-27T11:41:37.185Z,102138.53
2022-12-27T11:42:43.934Z,102136.75
2022-12-27T11:43:50.234Z,102134.94
2022-12-27T11:45:04.212Z,102143.63
2022-12-27T11:46:18.835Z,102139.06
2022-12-27T11:47:31.364Z,102143.28
2022-12-27T11:48:38.109Z,102134.38
2022-12-27T11:49:49.110Z,102148.38
2022-12-27T11:51:26.638Z,102135.97
2022-12-27T11:52:45.678Z,102143.91
2022-12-27T11:54:17.360Z,102143.91
2022-12-27T11:55:43.258Z,102141.97
2022-12-27T11:56:50.865Z,102140.09
2022-12-27T11:58:16.986Z,102147.81
2022-12-27T11:59:47.184Z,102145.81
2022-12-27T12:01:03.642Z,102141.31
2022-12-27T12:02:49.579Z,102140.31
2022-12-27T12:04:15.175Z,102132.31
2022-12-27T12:05:56.187Z,102134.81
2022-12-27T12:07:11.630Z,102129.38
2022-12-27T12:08:56.063Z,102133.75
2022-12-27T12:10:11.836Z,102130.09
2022-12-27T12:11:26.471Z,102139.66
2022-12-27T12:12:55.396Z,102122.81
2022-12-27T12:14:21.152Z,102127.97
2022-12-27T12:15:41.711Z,102126.09
2022-12-27T12:17:14.627Z,102113.63
2022-12-27T12:18:34.970Z,102117.16
2022-12-27T12:19:55.654Z,102110.94
2022-12-27T12:21:23.849Z,102117.00
2022-12-27T12:22:54.185Z,102118.72
2022-12-27T12:24:32.447Z,102117.78
2022-12-27T12:26:10.769Z,102115.06
2022-12-27T12:27:31.613Z,102114.09
2022-12-27T12:29:18.790Z,102111.34
2022-12-27T12:30:43.384Z,102112.06
2022-12-27T12:32:06.066Z,102106.72
2022-12-27T12:33:28.208Z,102116.34
2022-12-27T12:34:46.514Z,102111.03
2022-12-27T12:36:09.783Z,102108.34
2022-12-27T12:37:27.874Z,102102.09
2022-12-27T12:38:40.519Z,102107.31
2022-12-27T12:39:59.254Z,102104.63
2022-12-27T12:41:22.595Z,102107.25
2022-12-27T12:42:36.778Z,102091.41
2022-12-27T12:43:59.460Z,102101.03
2022-12-27T12:45:48.692Z,102102.81
2022-12-27T12:47:02.914Z,102106.31
2022-12-27T12:48:35.082Z,102099.25
2022-12-27T12:50:13.228Z,102098.38
2022-12-27T12:51:36.749Z,102097.47
2022-12-27T12:52:54.883Z,102093.88
2022-12-27T12:54:13.257Z,102091.25
2022-12-27T12:55:38.918Z,102085.16
2022-12-27T12:57:00.133Z,102086.13
2022-12-27T12:58:16.624Z,102079.97
2022-12-27T12:59:39.817Z,102078.19
2022-12-27T13:01:05.218Z,102077.31
2022-12-27T13:02:40.522Z,102082.59
2022-12-27T13:04:19.529Z,102078.19
2022-12-27T13:05:29.259Z,102076.47
2022-12-27T13:07:13.327Z,102072.91
2022-12-27T13:08:23.308Z,102074.59
2022-12-27T13:09:41.279Z,102065.72
2022-12-27T13:11:09.443Z,102062.22